Troy, AL

9:46 PM CDT on September 19, 2014 (GMT -0500)
Troy Municipal | Change Station
CLOSE
Current Station
Airport
Location: Troy,
Elevation: 397 ft
Nearby Weather Stations

Elev 397 ft 31.86 °N, 86.01 °W | Updated 53 minutes ago

Clear
Clear
70 °F
Feels Like 70 °F
N
0
Wind Variable Wind from North

Today
High -- | Low -- °F
--% Chance of Precip.
Yesterday
High -- | Low -- °F
Precip. -- in
6:30 AM 6:44 PM
Waning Crescent, 15% visible
Pressure 30.03 in
Visibility 10.0 miles
Clouds Clear
Dew Point 67 °F
Humidity 90%
Rainfall 0.29 in
Snow Depth Not available.
UV 0 out of 12
Pollen 7.90 out of 12
Air Quality Not available.
Flu Activity Not available.
METAR KTOI 200153Z AUTO 00000KT 10SM CLR 21/19 A3004 RMK AO2 SLP168 T02110194

More Conditions Fewer Conditions

Pressure 30.03 in
Visibility 10.0 miles
Clouds Clear
Dew Point 67 °F
Humidity 90%
Rainfall 0.29 in
Snow Depth Not available.
UV 0 out of 12
Pollen 7.90 out of 12
Air Quality Not available.
Flu Activity Not available.
METAR KTOI 200153Z AUTO 00000KT 10SM CLR 21/19 A3004 RMK AO2 SLP168 T02110194

More Conditions Fewer Conditions

10-Day Weather Forecast

Almanac

Astronomy

Sep. 19, 2014 Rise Set
Actual Time 6:30 AM CDT 6:44 PM CDT
Civil Twilight 6:06 AM CDT 7:08 PM CDT
Nautical Twilight 5:37 AM CDT 7:37 PM CDT
Astronomical Twilight 5:08 AM CDT 8:06 PM CDT
Moon 2:27 AM CDT (9/19) 4:02 PM CDT (9/19)
Length of Visible Light 13h 02m
Length of Day
12h 14m
Tomorrow will be 1m 55s shorter.
Waning Crescent, 15% of the Moon is Illuminated
Today
Waning Crescent
Sep 24
New
Oct 1
First Quarter
Oct 8
Full
Oct 15
Last Quarter

Today's Extremes

State Highs State Lows

Community

WunderPhotos

Upload Photos

1,754,768 photos uploaded!

WunderBlogs® & News

Nearby

Snow Depth

Station Depth Elevation
No new snow has been reported.

Earthquake Activity

City Distance Mag. Time & Date
No recent earthquake activity has been reported nearby.
Minimum magnitude displayed is 2.5.

Coastal Water Temperatures

Place Temperature
No Stations Reporting

Nearby Weather Stations